sensor_id;sensor_type;location;lat;lon;timestamp;temperature;humidity
76613;DHT22;65507;48.454;-2.058;2023-03-11T00:00:05;5.80;75.90
76613;DHT22;65507;48.454;-2.058;2023-03-11T00:02:37;5.90;75.70
76613;DHT22;65507;48.454;-2.058;2023-03-11T00:05:03;6.00;75.50
76613;DHT22;65507;48.454;-2.058;2023-03-11T00:07:28;6.00;75.50
76613;DHT22;65507;48.454;-2.058;2023-03-11T00:09:54;6.10;75.50
76613;DHT22;65507;48.454;-2.058;2023-03-11T00:12:19;6.10;76.00
76613;DHT22;65507;48.454;-2.058;2023-03-11T00:14:45;6.10;76.30
76613;DHT22;65507;48.454;-2.058;2023-03-11T00:17:10;6.10;75.90
76613;DHT22;65507;48.454;-2.058;2023-03-11T00:19:36;6.10;76.30
76613;DHT22;65507;48.454;-2.058;2023-03-11T00:22:02;6.10;76.10
76613;DHT22;65507;48.454;-2.058;2023-03-11T00:24:27;6.20;76.40
76613;DHT22;65507;48.454;-2.058;2023-03-11T00:26:53;6.20;76.10
76613;DHT22;65507;48.454;-2.058;2023-03-11T00:29:18;6.20;75.90
76613;DHT22;65507;48.454;-2.058;2023-03-11T00:31:44;6.20;75.90
76613;DHT22;65507;48.454;-2.058;2023-03-11T00:34:09;6.20;76.20
76613;DHT22;65507;48.454;-2.058;2023-03-11T00:36:35;6.30;76.20
76613;DHT22;65507;48.454;-2.058;2023-03-11T00:39:01;6.30;76.40
76613;DHT22;65507;48.454;-2.058;2023-03-11T00:41:31;6.20;76.10
76613;DHT22;65507;48.454;-2.058;2023-03-11T00:43:57;6.20;76.30
76613;DHT22;65507;48.454;-2.058;2023-03-11T00:46:22;6.20;76.60
76613;DHT22;65507;48.454;-2.058;2023-03-11T00:48:51;6.20;76.40
76613;DHT22;65507;48.454;-2.058;2023-03-11T00:51:17;6.20;77.20
76613;DHT22;65507;48.454;-2.058;2023-03-11T00:53:44;6.10;76.60
76613;DHT22;65507;48.454;-2.058;2023-03-11T00:56:11;6.10;76.50
76613;DHT22;65507;48.454;-2.058;2023-03-11T00:58:37;6.10;76.50
76613;DHT22;65507;48.454;-2.058;2023-03-11T01:01:06;6.00;76.70
76613;DHT22;65507;48.454;-2.058;2023-03-11T01:03:32;6.00;76.50
76613;DHT22;65507;48.454;-2.058;2023-03-11T01:05:57;6.00;76.90
76613;DHT22;65507;48.454;-2.058;2023-03-11T01:08:23;5.90;77.50
76613;DHT22;65507;48.454;-2.058;2023-03-11T01:10:49;5.90;77.20
76613;DHT22;65507;48.454;-2.058;2023-03-11T01:13:14;5.90;77.30
76613;DHT22;65507;48.454;-2.058;2023-03-11T01:15:40;5.90;77.00
76613;DHT22;65507;48.454;-2.058;2023-03-11T01:18:05;5.90;77.00
76613;DHT22;65507;48.454;-2.058;2023-03-11T01:20:31;6.00;77.80
76613;DHT22;65507;48.454;-2.058;2023-03-11T01:22:56;5.90;76.90
76613;DHT22;65507;48.454;-2.058;2023-03-11T01:25:23;5.90;76.90
76613;DHT22;65507;48.454;-2.058;2023-03-11T01:27:48;5.90;76.70
76613;DHT22;65507;48.454;-2.058;2023-03-11T01:30:15;5.90;76.60
76613;DHT22;65507;48.454;-2.058;2023-03-11T01:32:41;5.90;76.60
76613;DHT22;65507;48.454;-2.058;2023-03-11T01:35:08;5.90;76.70
76613;DHT22;65507;48.454;-2.058;2023-03-11T01:37:34;5.90;76.70
76613;DHT22;65507;48.454;-2.058;2023-03-11T01:40:00;5.90;76.70
76613;DHT22;65507;48.454;-2.058;2023-03-11T01:42:25;5.90;77.90
76613;DHT22;65507;48.454;-2.058;2023-03-11T01:44:51;5.90;76.70
76613;DHT22;65507;48.454;-2.058;2023-03-11T01:47:31;5.90;77.10
76613;DHT22;65507;48.454;-2.058;2023-03-11T01:49:57;5.90;76.40
76613;DHT22;65507;48.454;-2.058;2023-03-11T01:52:23;6.00;76.30
76613;DHT22;65507;48.454;-2.058;2023-03-11T01:54:49;6.00;77.40
76613;DHT22;65507;48.454;-2.058;2023-03-11T01:57:14;6.00;76.90
76613;DHT22;65507;48.454;-2.058;2023-03-11T01:59:42;6.00;77.20
76613;DHT22;65507;48.454;-2.058;2023-03-11T02:02:22;5.90;76.50
76613;DHT22;65507;48.454;-2.058;2023-03-11T02:04:50;6.00;76.40
76613;DHT22;65507;48.454;-2.058;2023-03-11T02:07:16;5.90;76.70
76613;DHT22;65507;48.454;-2.058;2023-03-11T02:09:41;6.00;76.80
76613;DHT22;65507;48.454;-2.058;2023-03-11T02:12:08;5.90;78.00
76613;DHT22;65507;48.454;-2.058;2023-03-11T02:14:34;5.90;76.80
76613;DHT22;65507;48.454;-2.058;2023-03-11T02:17:03;5.90;77.10
76613;DHT22;65507;48.454;-2.058;2023-03-11T02:22:01;5.80;76.70
76613;DHT22;65507;48.454;-2.058;2023-03-11T02:24:34;5.90;77.30
76613;DHT22;65507;48.454;-2.058;2023-03-11T02:27:05;5.90;76.70
76613;DHT22;65507;48.454;-2.058;2023-03-11T02:29:31;5.90;76.70
76613;DHT22;65507;48.454;-2.058;2023-03-11T02:31:57;5.90;76.60
76613;DHT22;65507;48.454;-2.058;2023-03-11T02:34:28;6.00;76.60
76613;DHT22;65507;48.454;-2.058;2023-03-11T02:36:54;6.00;76.50
76613;DHT22;65507;48.454;-2.058;2023-03-11T02:39:29;6.00;76.50
76613;DHT22;65507;48.454;-2.058;2023-03-11T02:41:55;6.00;76.60
76613;DHT22;65507;48.454;-2.058;2023-03-11T02:44:21;5.90;77.30
76613;DHT22;65507;48.454;-2.058;2023-03-11T02:46:46;5.80;77.70
76613;DHT22;65507;48.454;-2.058;2023-03-11T02:49:12;5.80;77.80
76613;DHT22;65507;48.454;-2.058;2023-03-11T02:51:38;5.70;77.40
76613;DHT22;65507;48.454;-2.058;2023-03-11T02:54:04;5.70;77.70
76613;DHT22;65507;48.454;-2.058;2023-03-11T02:56:30;5.80;77.20
76613;DHT22;65507;48.454;-2.058;2023-03-11T02:58:56;5.80;77.20
76613;DHT22;65507;48.454;-2.058;2023-03-11T03:01:22;5.80;77.10
76613;DHT22;65507;48.454;-2.058;2023-03-11T03:03:47;5.80;77.00
76613;DHT22;65507;48.454;-2.058;2023-03-11T03:06:13;5.80;77.20
76613;DHT22;65507;48.454;-2.058;2023-03-11T03:08:39;5.80;77.10
76613;DHT22;65507;48.454;-2.058;2023-03-11T03:11:05;5.90;77.20
76613;DHT22;65507;48.454;-2.058;2023-03-11T03:13:30;5.90;77.00
76613;DHT22;65507;48.454;-2.058;2023-03-11T03:15:56;5.90;77.00
76613;DHT22;65507;48.454;-2.058;2023-03-11T03:18:22;5.90;77.00
76613;DHT22;65507;48.454;-2.058;2023-03-11T03:20:48;5.80;77.10
76613;DHT22;65507;48.454;-2.058;2023-03-11T03:23:13;5.80;77.80
76613;DHT22;65507;48.454;-2.058;2023-03-11T03:25:42;5.80;77.80
76613;DHT22;65507;48.454;-2.058;2023-03-11T03:28:11;5.80;77.10
76613;DHT22;65507;48.454;-2.058;2023-03-11T03:30:38;5.80;77.10
76613;DHT22;65507;48.454;-2.058;2023-03-11T03:33:04;5.80;77.30
76613;DHT22;65507;48.454;-2.058;2023-03-11T03:35:30;5.70;77.20
76613;DHT22;65507;48.454;-2.058;2023-03-11T03:37:55;5.30;77.10
76613;DHT22;65507;48.454;-2.058;2023-03-11T03:40:21;5.70;77.80
76613;DHT22;65507;48.454;-2.058;2023-03-11T03:42:47;5.70;77.80
76613;DHT22;65507;48.454;-2.058;2023-03-11T03:45:12;5.70;78.10
76613;DHT22;65507;48.454;-2.058;2023-03-11T03:47:38;5.70;77.90
76613;DHT22;65507;48.454;-2.058;2023-03-11T03:50:04;5.70;78.10
76613;DHT22;65507;48.454;-2.058;2023-03-11T03:52:36;5.70;77.20
76613;DHT22;65507;48.454;-2.058;2023-03-11T03:55:02;5.70;77.10
76613;DHT22;65507;48.454;-2.058;2023-03-11T03:57:28;5.70;77.30
76613;DHT22;65507;48.454;-2.058;2023-03-11T03:59:54;4.30;76.30
76613;DHT22;65507;48.454;-2.058;2023-03-11T04:02:19;5.70;77.00
76613;DHT22;65507;48.454;-2.058;2023-03-11T04:04:45;4.70;76.50
76613;DHT22;65507;48.454;-2.058;2023-03-11T04:07:11;5.70;77.30
76613;DHT22;65507;48.454;-2.058;2023-03-11T04:09:40;5.60;77.30
76613;DHT22;65507;48.454;-2.058;2023-03-11T04:12:06;5.60;77.20
76613;DHT22;65507;48.454;-2.058;2023-03-11T04:14:32;5.60;77.30
76613;DHT22;65507;48.454;-2.058;2023-03-11T04:16:58;5.60;77.50
76613;DHT22;65507;48.454;-2.058;2023-03-11T04:19:24;5.60;77.40
76613;DHT22;65507;48.454;-2.058;2023-03-11T04:21:49;4.40;76.80
76613;DHT22;65507;48.454;-2.058;2023-03-11T04:24:16;5.70;77.40
76613;DHT22;65507;48.454;-2.058;2023-03-11T04:26:42;5.80;77.50
76613;DHT22;65507;48.454;-2.058;2023-03-11T04:29:07;5.80;77.30
76613;DHT22;65507;48.454;-2.058;2023-03-11T04:31:33;5.80;77.10
76613;DHT22;65507;48.454;-2.058;2023-03-11T04:33:59;5.80;77.10
76613;DHT22;65507;48.454;-2.058;2023-03-11T04:36:24;5.80;77.40
76613;DHT22;65507;48.454;-2.058;2023-03-11T04:38:50;5.80;77.10
76613;DHT22;65507;48.454;-2.058;2023-03-11T04:41:15;5.80;77.20
76613;DHT22;65507;48.454;-2.058;2023-03-11T04:43:41;5.80;77.10
76613;DHT22;65507;48.454;-2.058;2023-03-11T04:46:06;5.80;77.30
76613;DHT22;65507;48.454;-2.058;2023-03-11T04:48:32;5.90;77.30
76613;DHT22;65507;48.454;-2.058;2023-03-11T04:50:57;5.90;77.20
76613;DHT22;65507;48.454;-2.058;2023-03-11T04:53:23;5.90;77.10
76613;DHT22;65507;48.454;-2.058;2023-03-11T04:55:49;5.90;77.10
76613;DHT22;65507;48.454;-2.058;2023-03-11T04:58:14;5.90;77.10
76613;DHT22;65507;48.454;-2.058;2023-03-11T05:00:40;5.90;77.10
76613;DHT22;65507;48.454;-2.058;2023-03-11T05:03:06;5.90;77.20
76613;DHT22;65507;48.454;-2.058;2023-03-11T05:05:31;5.90;77.60
76613;DHT22;65507;48.454;-2.058;2023-03-11T05:07:57;5.90;77.50
76613;DHT22;65507;48.454;-2.058;2023-03-11T05:10:22;5.90;77.40
76613;DHT22;65507;48.454;-2.058;2023-03-11T05:12:48;5.90;77.50
76613;DHT22;65507;48.454;-2.058;2023-03-11T05:15:14;6.10;77.70
76613;DHT22;65507;48.454;-2.058;2023-03-11T05:17:39;6.00;77.60
76613;DHT22;65507;48.454;-2.058;2023-03-11T05:20:05;6.00;77.50
76613;DHT22;65507;48.454;-2.058;2023-03-11T05:22:32;5.90;77.40
76613;DHT22;65507;48.454;-2.058;2023-03-11T05:24:58;6.00;77.30
76613;DHT22;65507;48.454;-2.058;2023-03-11T05:27:23;6.00;77.30
76613;DHT22;65507;48.454;-2.058;2023-03-11T05:29:49;6.00;77.30
76613;DHT22;65507;48.454;-2.058;2023-03-11T05:32:15;6.00;77.30
76613;DHT22;65507;48.454;-2.058;2023-03-11T05:34:40;6.00;77.50
76613;DHT22;65507;48.454;-2.058;2023-03-11T05:37:06;6.00;77.20
76613;DHT22;65507;48.454;-2.058;2023-03-11T05:39:32;6.10;77.30
76613;DHT22;65507;48.454;-2.058;2023-03-11T05:41:57;6.10;77.30
76613;DHT22;65507;48.454;-2.058;2023-03-11T05:44:23;6.10;77.70
76613;DHT22;65507;48.454;-2.058;2023-03-11T05:46:49;6.10;77.70
76613;DHT22;65507;48.454;-2.058;2023-03-11T05:49:14;6.00;77.50
76613;DHT22;65507;48.454;-2.058;2023-03-11T05:51:40;5.10;77.30
76613;DHT22;65507;48.454;-2.058;2023-03-11T05:54:05;6.10;77.80
76613;DHT22;65507;48.454;-2.058;2023-03-11T05:56:45;6.10;77.60
76613;DHT22;65507;48.454;-2.058;2023-03-11T05:59:11;6.10;77.50
76613;DHT22;65507;48.454;-2.058;2023-03-11T06:01:37;6.10;77.60
76613;DHT22;65507;48.454;-2.058;2023-03-11T06:04:03;6.10;77.80
76613;DHT22;65507;48.454;-2.058;2023-03-11T06:06:29;6.10;77.80
76613;DHT22;65507;48.454;-2.058;2023-03-11T06:08:55;6.10;77.80
76613;DHT22;65507;48.454;-2.058;2023-03-11T06:11:20;6.10;77.70
76613;DHT22;65507;48.454;-2.058;2023-03-11T06:13:52;6.00;77.80
76613;DHT22;65507;48.454;-2.058;2023-03-11T06:16:19;6.10;77.60
76613;DHT22;65507;48.454;-2.058;2023-03-11T06:18:44;6.10;77.70
76613;DHT22;65507;48.454;-2.058;2023-03-11T06:21:14;6.10;77.70
76613;DHT22;65507;48.454;-2.058;2023-03-11T06:23:41;6.10;77.70
76613;DHT22;65507;48.454;-2.058;2023-03-11T06:26:06;6.00;78.20
76613;DHT22;65507;48.454;-2.058;2023-03-11T06:28:32;6.00;77.90
76613;DHT22;65507;48.454;-2.058;2023-03-11T06:31:10;5.90;77.70
76613;DHT22;65507;48.454;-2.058;2023-03-11T06:33:35;6.00;77.60
76613;DHT22;65507;48.454;-2.058;2023-03-11T06:36:02;6.10;78.00
76613;DHT22;65507;48.454;-2.058;2023-03-11T06:38:28;6.00;77.60
76613;DHT22;65507;48.454;-2.058;2023-03-11T06:40:53;6.00;77.70
76613;DHT22;65507;48.454;-2.058;2023-03-11T06:43:22;6.00;77.70
76613;DHT22;65507;48.454;-2.058;2023-03-11T06:45:48;6.00;78.00
76613;DHT22;65507;48.454;-2.058;2023-03-11T06:48:13;6.00;78.00
76613;DHT22;65507;48.454;-2.058;2023-03-11T06:50:39;6.10;78.00
76613;DHT22;65507;48.454;-2.058;2023-03-11T06:53:04;6.00;77.70
76613;DHT22;65507;48.454;-2.058;2023-03-11T06:55:32;6.00;77.70
76613;DHT22;65507;48.454;-2.058;2023-03-11T06:57:57;6.00;77.60
76613;DHT22;65507;48.454;-2.058;2023-03-11T07:00:23;6.00;77.70
76613;DHT22;65507;48.454;-2.058;2023-03-11T07:02:49;6.10;78.20
76613;DHT22;65507;48.454;-2.058;2023-03-11T07:05:14;6.10;77.80
76613;DHT22;65507;48.454;-2.058;2023-03-11T07:07:40;6.10;77.70
76613;DHT22;65507;48.454;-2.058;2023-03-11T07:10:05;6.10;77.40
76613;DHT22;65507;48.454;-2.058;2023-03-11T07:12:31;6.10;77.80
76613;DHT22;65507;48.454;-2.058;2023-03-11T07:14:57;6.10;77.50
76613;DHT22;65507;48.454;-2.058;2023-03-11T07:17:23;6.10;77.50
76613;DHT22;65507;48.454;-2.058;2023-03-11T07:19:49;6.20;77.50
76613;DHT22;65507;48.454;-2.058;2023-03-11T07:22:14;6.20;77.90
76613;DHT22;65507;48.454;-2.058;2023-03-11T07:24:40;6.20;77.70
76613;DHT22;65507;48.454;-2.058;2023-03-11T07:27:06;6.20;78.40
76613;DHT22;65507;48.454;-2.058;2023-03-11T07:29:31;6.10;78.30
76613;DHT22;65507;48.454;-2.058;2023-03-11T07:31:57;6.10;78.10
76613;DHT22;65507;48.454;-2.058;2023-03-11T07:34:22;6.10;78.20
76613;DHT22;65507;48.454;-2.058;2023-03-11T07:36:48;6.10;78.50
76613;DHT22;65507;48.454;-2.058;2023-03-11T07:39:15;6.20;78.70
76613;DHT22;65507;48.454;-2.058;2023-03-11T07:41:41;6.10;77.80
76613;DHT22;65507;48.454;-2.058;2023-03-11T07:44:06;6.30;77.90
76613;DHT22;65507;48.454;-2.058;2023-03-11T07:46:32;6.30;78.30
76613;DHT22;65507;48.454;-2.058;2023-03-11T07:48:58;6.30;77.90
76613;DHT22;65507;48.454;-2.058;2023-03-11T07:51:25;6.30;77.70
76613;DHT22;65507;48.454;-2.058;2023-03-11T07:53:52;6.30;77.70
76613;DHT22;65507;48.454;-2.058;2023-03-11T07:56:18;6.40;77.40
76613;DHT22;65507;48.454;-2.058;2023-03-11T07:58:44;6.40;77.30
76613;DHT22;65507;48.454;-2.058;2023-03-11T08:01:11;6.40;77.70
76613;DHT22;65507;48.454;-2.058;2023-03-11T08:03:37;6.40;77.50
76613;DHT22;65507;48.454;-2.058;2023-03-11T08:06:25;6.50;77.90
76613;DHT22;65507;48.454;-2.058;2023-03-11T08:08:49;6.50;77.40
76613;DHT22;65507;48.454;-2.058;2023-03-11T08:11:16;6.50;77.30
76613;DHT22;65507;48.454;-2.058;2023-03-11T08:13:42;6.60;77.20
76613;DHT22;65507;48.454;-2.058;2023-03-11T08:16:09;6.70;77.10
76613;DHT22;65507;48.454;-2.058;2023-03-11T08:18:35;6.80;77.00
76613;DHT22;65507;48.454;-2.058;2023-03-11T08:21:04;6.80;77.10
76613;DHT22;65507;48.454;-2.058;2023-03-11T08:23:30;6.90;76.70
76613;DHT22;65507;48.454;-2.058;2023-03-11T08:25:55;7.00;77.90
76613;DHT22;65507;48.454;-2.058;2023-03-11T08:28:21;7.00;77.00
76613;DHT22;65507;48.454;-2.058;2023-03-11T08:30:46;7.00;76.90
76613;DHT22;65507;48.454;-2.058;2023-03-11T08:33:12;7.10;76.80
76613;DHT22;65507;48.454;-2.058;2023-03-11T08:35:37;7.10;76.90
76613;DHT22;65507;48.454;-2.058;2023-03-11T08:38:03;7.20;77.30
76613;DHT22;65507;48.454;-2.058;2023-03-11T08:40:28;7.30;76.90
76613;DHT22;65507;48.454;-2.058;2023-03-11T08:42:55;7.30;77.00
76613;DHT22;65507;48.454;-2.058;2023-03-11T08:45:20;7.30;76.70
76613;DHT22;65507;48.454;-2.058;2023-03-11T08:47:46;8.30;77.40
76613;DHT22;65507;48.454;-2.058;2023-03-11T08:50:14;7.30;77.50
76613;DHT22;65507;48.454;-2.058;2023-03-11T08:52:40;7.40;77.10
76613;DHT22;65507;48.454;-2.058;2023-03-11T08:55:06;7.40;77.00
76613;DHT22;65507;48.454;-2.058;2023-03-11T08:57:33;7.50;76.90
76613;DHT22;65507;48.454;-2.058;2023-03-11T08:59:58;7.40;77.80
76613;DHT22;65507;48.454;-2.058;2023-03-11T09:02:24;7.50;78.10
76613;DHT22;65507;48.454;-2.058;2023-03-11T09:04:50;7.50;77.40
76613;DHT22;65507;48.454;-2.058;2023-03-11T09:07:15;7.60;77.00
76613;DHT22;65507;48.454;-2.058;2023-03-11T09:09:41;7.80;78.00
76613;DHT22;65507;48.454;-2.058;2023-03-11T09:12:07;7.80;77.30
76613;DHT22;65507;48.454;-2.058;2023-03-11T09:14:33;7.90;76.40
76613;DHT22;65507;48.454;-2.058;2023-03-11T09:16:59;8.10;76.90
76613;DHT22;65507;48.454;-2.058;2023-03-11T09:19:25;8.10;76.80
76613;DHT22;65507;48.454;-2.058;2023-03-11T09:21:51;8.10;76.80
76613;DHT22;65507;48.454;-2.058;2023-03-11T09:24:16;8.10;77.70
76613;DHT22;65507;48.454;-2.058;2023-03-11T09:26:42;8.10;77.10
76613;DHT22;65507;48.454;-2.058;2023-03-11T09:29:07;8.20;76.80
76613;DHT22;65507;48.454;-2.058;2023-03-11T09:31:35;8.30;77.10
76613;DHT22;65507;48.454;-2.058;2023-03-11T09:34:02;8.30;77.00
76613;DHT22;65507;48.454;-2.058;2023-03-11T09:36:28;7.80;76.70
76613;DHT22;65507;48.454;-2.058;2023-03-11T09:38:53;8.40;76.70
76613;DHT22;65507;48.454;-2.058;2023-03-11T09:46:27;8.60;76.00
76613;DHT22;65507;48.454;-2.058;2023-03-11T09:48:59;8.60;76.10
76613;DHT22;65507;48.454;-2.058;2023-03-11T09:51:29;8.70;76.20
76613;DHT22;65507;48.454;-2.058;2023-03-11T09:53:58;8.70;76.20
76613;DHT22;65507;48.454;-2.058;2023-03-11T09:56:27;8.70;76.20
76613;DHT22;65507;48.454;-2.058;2023-03-11T09:59:00;8.80;77.10
76613;DHT22;65507;48.454;-2.058;2023-03-11T10:01:38;8.80;76.20
76613;DHT22;65507;48.454;-2.058;2023-03-11T10:07:08;8.90;76.20
76613;DHT22;65507;48.454;-2.058;2023-03-11T10:09:45;8.90;76.30
76613;DHT22;65507;48.454;-2.058;2023-03-11T10:12:18;9.00;76.20
76613;DHT22;65507;48.454;-2.058;2023-03-11T10:14:53;9.00;76.20
76613;DHT22;65507;48.454;-2.058;2023-03-11T10:22:55;7.60;75.30
76613;DHT22;65507;48.454;-2.058;2023-03-11T10:25:24;9.10;76.10
76613;DHT22;65507;48.454;-2.058;2023-03-11T10:27:53;9.10;76.20
76613;DHT22;65507;48.454;-2.058;2023-03-11T10:30:23;9.10;76.30
76613;DHT22;65507;48.454;-2.058;2023-03-11T10:35:40;9.30;76.10
76613;DHT22;65507;48.454;-2.058;2023-03-11T10:38:19;9.40;76.00
76613;DHT22;65507;48.454;-2.058;2023-03-11T10:40:47;9.40;75.80
76613;DHT22;65507;48.454;-2.058;2023-03-11T10:43:34;9.50;75.90
76613;DHT22;65507;48.454;-2.058;2023-03-11T10:45:58;9.60;75.80
76613;DHT22;65507;48.454;-2.058;2023-03-11T10:48:24;9.70;76.10
76613;DHT22;65507;48.454;-2.058;2023-03-11T10:51:00;9.80;75.60
76613;DHT22;65507;48.454;-2.058;2023-03-11T10:53:26;9.90;75.40
76613;DHT22;65507;48.454;-2.058;2023-03-11T10:55:52;10.00;76.30
76613;DHT22;65507;48.454;-2.058;2023-03-11T10:58:19;10.10;75.50
76613;DHT22;65507;48.454;-2.058;2023-03-11T11:00:45;10.20;75.30
76613;DHT22;65507;48.454;-2.058;2023-03-11T11:03:13;10.10;75.50
76613;DHT22;65507;48.454;-2.058;2023-03-11T11:05:41;10.20;75.40
76613;DHT22;65507;48.454;-2.058;2023-03-11T11:08:08;10.20;75.50
76613;DHT22;65507;48.454;-2.058;2023-03-11T11:10:36;10.30;75.40
76613;DHT22;65507;48.454;-2.058;2023-03-11T11:13:15;10.40;76.00
76613;DHT22;65507;48.454;-2.058;2023-03-11T11:15:50;10.50;75.40
76613;DHT22;65507;48.454;-2.058;2023-03-11T11:18:23;10.60;75.30
76613;DHT22;65507;48.454;-2.058;2023-03-11T11:23:25;10.80;75.00
76613;DHT22;65507;48.454;-2.058;2023-03-11T11:25:56;12.00;75.50
76613;DHT22;65507;48.454;-2.058;2023-03-11T11:28:22;11.00;74.80
76613;DHT22;65507;48.454;-2.058;2023-03-11T11:30:55;11.00;75.70
76613;DHT22;65507;48.454;-2.058;2023-03-11T11:33:22;11.10;74.80
76613;DHT22;65507;48.454;-2.058;2023-03-11T11:35:49;11.10;75.00
76613;DHT22;65507;48.454;-2.058;2023-03-11T11:38:15;11.20;75.00
76613;DHT22;65507;48.454;-2.058;2023-03-11T11:40:41;11.40;75.00
76613;DHT22;65507;48.454;-2.058;2023-03-11T11:43:49;11.40;75.00
76613;DHT22;65507;48.454;-2.058;2023-03-11T11:45:55;11.60;74.60
76613;DHT22;65507;48.454;-2.058;2023-03-11T11:50:55;11.80;74.40
76613;DHT22;65507;48.454;-2.058;2023-03-11T11:55:50;11.90;74.40
76613;DHT22;65507;48.454;-2.058;2023-03-11T11:58:20;12.00;74.50
76613;DHT22;65507;48.454;-2.058;2023-03-11T12:03:29;12.10;74.50
76613;DHT22;65507;48.454;-2.058;2023-03-11T12:05:58;12.10;74.60
76613;DHT22;65507;48.454;-2.058;2023-03-11T12:08:45;11.90;74.60
76613;DHT22;65507;48.454;-2.058;2023-03-11T12:11:58;12.10;74.70
76613;DHT22;65507;48.454;-2.058;2023-03-11T12:26:44;12.40;74.80
76613;DHT22;65507;48.454;-2.058;2023-03-11T12:29:25;12.50;74.70
76613;DHT22;65507;48.454;-2.058;2023-03-11T12:31:53;12.60;74.60
76613;DHT22;65507;48.454;-2.058;2023-03-11T12:34:19;12.70;74.60
76613;DHT22;65507;48.454;-2.058;2023-03-11T12:36:46;12.70;74.70
76613;DHT22;65507;48.454;-2.058;2023-03-11T12:39:22;12.80;74.60
76613;DHT22;65507;48.454;-2.058;2023-03-11T12:42:37;12.80;74.50
76613;DHT22;65507;48.454;-2.058;2023-03-11T12:44:35;12.80;74.60
76613;DHT22;65507;48.454;-2.058;2023-03-11T12:52:02;12.90;74.80
76613;DHT22;65507;48.454;-2.058;2023-03-11T12:54:31;12.90;74.90
76613;DHT22;65507;48.454;-2.058;2023-03-11T12:59:53;13.00;74.90
76613;DHT22;65507;48.454;-2.058;2023-03-11T13:05:15;13.30;74.50
76613;DHT22;65507;48.454;-2.058;2023-03-11T13:07:45;13.40;74.40
76613;DHT22;65507;48.454;-2.058;2023-03-11T13:10:12;13.50;74.40
76613;DHT22;65507;48.454;-2.058;2023-03-11T13:18:27;13.60;74.30
76613;DHT22;65507;48.454;-2.058;2023-03-11T13:23:08;13.60;74.60
76613;DHT22;65507;48.454;-2.058;2023-03-11T13:25:38;13.50;74.60
76613;DHT22;65507;48.454;-2.058;2023-03-11T13:28:17;13.60;74.70
76613;DHT22;65507;48.454;-2.058;2023-03-11T13:30:49;13.60;74.80
76613;DHT22;65507;48.454;-2.058;2023-03-11T13:33:19;13.60;74.70
76613;DHT22;65507;48.454;-2.058;2023-03-11T13:41:25;13.80;74.50
76613;DHT22;65507;48.454;-2.058;2023-03-11T13:43:52;13.90;74.50
76613;DHT22;65507;48.454;-2.058;2023-03-11T13:46:39;14.00;74.30
76613;DHT22;65507;48.454;-2.058;2023-03-11T13:49:13;14.20;74.20
76613;DHT22;65507;48.454;-2.058;2023-03-11T13:51:46;14.30;74.00
76613;DHT22;65507;48.454;-2.058;2023-03-11T13:56:58;14.50;73.80
76613;DHT22;65507;48.454;-2.058;2023-03-11T13:59:29;14.60;73.70
76613;DHT22;65507;48.454;-2.058;2023-03-11T14:01:59;14.70;73.70
76613;DHT22;65507;48.454;-2.058;2023-03-11T14:04:31;14.80;73.60
76613;DHT22;65507;48.454;-2.058;2023-03-11T14:06:58;14.90;73.60
76613;DHT22;65507;48.454;-2.058;2023-03-11T14:09:24;15.00;73.50
76613;DHT22;65507;48.454;-2.058;2023-03-11T14:11:53;15.10;73.70
76613;DHT22;65507;48.454;-2.058;2023-03-11T14:17:05;15.30;73.30
76613;DHT22;65507;48.454;-2.058;2023-03-11T14:19:31;15.40;73.00
76613;DHT22;65507;48.454;-2.058;2023-03-11T14:21:56;15.50;73.00
76613;DHT22;65507;48.454;-2.058;2023-03-11T14:24:24;16.20;73.30
76613;DHT22;65507;48.454;-2.058;2023-03-11T14:26:50;15.60;73.20
76613;DHT22;65507;48.454;-2.058;2023-03-11T14:31:51;15.70;73.20
76613;DHT22;65507;48.454;-2.058;2023-03-11T14:34:18;15.60;73.20
76613;DHT22;65507;48.454;-2.058;2023-03-11T14:36:48;15.60;73.40
76613;DHT22;65507;48.454;-2.058;2023-03-11T14:39:28;15.60;73.60
76613;DHT22;65507;48.454;-2.058;2023-03-11T14:41:56;15.60;73.60
76613;DHT22;65507;48.454;-2.058;2023-03-11T14:44:22;15.50;73.80
76613;DHT22;65507;48.454;-2.058;2023-03-11T14:46:49;15.60;73.80
76613;DHT22;65507;48.454;-2.058;2023-03-11T14:49:16;15.60;74.00
76613;DHT22;65507;48.454;-2.058;2023-03-11T14:51:44;15.50;73.90
76613;DHT22;65507;48.454;-2.058;2023-03-11T14:54:17;15.50;74.00
76613;DHT22;65507;48.454;-2.058;2023-03-11T14:56:47;15.40;74.10
76613;DHT22;65507;48.454;-2.058;2023-03-11T14:59:25;15.40;74.20
76613;DHT22;65507;48.454;-2.058;2023-03-11T15:01:51;15.30;74.30
76613;DHT22;65507;48.454;-2.058;2023-03-11T15:06:52;15.30;74.30
76613;DHT22;65507;48.454;-2.058;2023-03-11T15:09:19;15.30;74.20
76613;DHT22;65507;48.454;-2.058;2023-03-11T15:14:31;15.50;73.90
76613;DHT22;65507;48.454;-2.058;2023-03-11T15:17:17;15.50;73.80
76613;DHT22;65507;48.454;-2.058;2023-03-11T15:19:42;15.50;73.70
76613;DHT22;65507;48.454;-2.058;2023-03-11T15:22:24;15.60;73.60
76613;DHT22;65507;48.454;-2.058;2023-03-11T15:24:55;15.70;73.50
76613;DHT22;65507;48.454;-2.058;2023-03-11T15:27:31;15.70;73.50
76613;DHT22;65507;48.454;-2.058;2023-03-11T15:29:58;15.70;73.50
76613;DHT22;65507;48.454;-2.058;2023-03-11T15:32:25;15.70;73.90
76613;DHT22;65507;48.454;-2.058;2023-03-11T15:35:25;15.70;73.70
76613;DHT22;65507;48.454;-2.058;2023-03-11T15:37:43;15.70;73.50
76613;DHT22;65507;48.454;-2.058;2023-03-11T15:40:10;15.80;73.70
76613;DHT22;65507;48.454;-2.058;2023-03-11T15:42:36;15.80;73.60
76613;DHT22;65507;48.454;-2.058;2023-03-11T15:45:23;15.80;73.80
76613;DHT22;65507;48.454;-2.058;2023-03-11T15:47:48;15.80;73.80
76613;DHT22;65507;48.454;-2.058;2023-03-11T15:50:22;15.70;74.00
76613;DHT22;65507;48.454;-2.058;2023-03-11T15:52:49;15.70;73.90
76613;DHT22;65507;48.454;-2.058;2023-03-11T15:55:14;15.70;74.10
76613;DHT22;65507;48.454;-2.058;2023-03-11T15:57:40;15.60;74.60
76613;DHT22;65507;48.454;-2.058;2023-03-11T16:00:13;15.60;74.30
76613;DHT22;65507;48.454;-2.058;2023-03-11T16:02:39;15.60;74.40
76613;DHT22;65507;48.454;-2.058;2023-03-11T16:05:11;15.50;74.80
76613;DHT22;65507;48.454;-2.058;2023-03-11T16:07:37;15.40;74.80
76613;DHT22;65507;48.454;-2.058;2023-03-11T16:10:02;15.30;75.50
76613;DHT22;65507;48.454;-2.058;2023-03-11T16:12:28;15.20;75.00
76613;DHT22;65507;48.454;-2.058;2023-03-11T16:14:54;15.20;76.10
76613;DHT22;65507;48.454;-2.058;2023-03-11T16:17:19;15.20;75.30
76613;DHT22;65507;48.454;-2.058;2023-03-11T16:19:47;15.10;75.50
76613;DHT22;65507;48.454;-2.058;2023-03-11T16:22:14;15.10;75.30
76613;DHT22;65507;48.454;-2.058;2023-03-11T16:24:40;15.10;75.10
76613;DHT22;65507;48.454;-2.058;2023-03-11T16:27:08;15.20;75.30
76613;DHT22;65507;48.454;-2.058;2023-03-11T16:29:35;15.20;75.00
76613;DHT22;65507;48.454;-2.058;2023-03-11T16:32:00;15.20;75.10
76613;DHT22;65507;48.454;-2.058;2023-03-11T16:34:26;15.10;75.30
76613;DHT22;65507;48.454;-2.058;2023-03-11T16:36:52;15.20;75.30
76613;DHT22;65507;48.454;-2.058;2023-03-11T16:39:17;15.10;75.10
76613;DHT22;65507;48.454;-2.058;2023-03-11T16:41:43;15.00;75.20
76613;DHT22;65507;48.454;-2.058;2023-03-11T16:44:09;15.00;75.50
76613;DHT22;65507;48.454;-2.058;2023-03-11T16:46:34;14.80;75.70